Impacts METAR Board
IDs:

KCLE - Cleveland/Hopkins In, OH, US

Updated at: 0100 UTC 24 Jun 2018
Potential Impact None Slight Moderate High
Time 23/13Z 23/14Z 23/15Z 23/16Z 23/17Z 23/18Z 23/19Z 23/20Z 23/21Z 23/22Z 23/23Z 24/00Z 24/01Z
Temp71 73 74 72 77 79 77 76 78 75 71 71 71
Dewpt66 66 65 68 67 65 64 69 68 68 68 67 67
Altim29.73 29.73 29.72 29.73 29.72 29.72 29.72 29.72 29.73 29.74 29.75 29.77 29.78
VIS10 10 10 10 10 10 10 10 10 10 6 10 10
CIG44 18 23 100 130 130 38 -- 150 70 90 80 70
CoverOVCOVCOVCBKNBKNBKNBKNSCTBKNBKNBKNBKNBKN
FltCatVFRMVFRMVFRVFRVFRVFRVFRVFRVFRVFRVFRVFRVFR
WX---------------------RA BR----
WDir180230200220250260250250260240230240220
WSpd9 9 10 8 12 11 10 8 10 7 10 9 6
WGst-- -- -- -- -- -- 18 -- -- -- -- -- --
Raw hourly METARs
KCLE 231251Z 18009KT 10SM SCT013 BKN044 OVC060 22/19 A2973 RMK AO2 SLP063 T02170189 $
KCLE 231351Z 23009KT 10SM BKN018 BKN032 OVC065 23/19 A2973 RMK AO2 SLP062 T02280189 $
KCLE 231451Z 20010KT 10SM BKN023 BKN035 OVC047 23/18 A2972 RMK AO2 SLP060 T02330183 58003 $
KCLE 231551Z 22008KT 10SM SCT023 BKN100 BKN250 22/20 A2973 RMK AO2 LTG DSNT SE RAB02E49 SLP062 CB DSNT SE MOV NE P0005 T02220200 $
KCLE 231651Z 25012KT 10SM SCT024 BKN130 BKN250 25/19 A2972 RMK AO2 LTG DSNT NE RAB10E26 SLP060 CB DSNT NE-E MOV NE P0002 T02500194 $
KCLE 231751Z 26011KT 10SM SCT028 SCT048 BKN130 BKN250 26/18 A2972 RMK AO2 SLP058 60007 T02610183 10261 20200 58001 $
KCLE 231851Z 25010G18KT 10SM BKN038CB BKN060 BKN250 25/18 A2972 RMK AO2 SLP058 VCSH CB OHD AND SW-NW MOV E T02500178 $
KCLE 231951Z 25008KT 10SM FEW030 SCT150 SCT250 24/21 A2972 RMK AO2 RAB1859E28 SLP058 CB DSNT S MOV E P0004 T02440206 $
KCLE 232051Z 26010KT 10SM SCT021 BKN150 BKN250 26/20 A2973 RMK AO2 SLP062 CB DSNT SW MOV E 60004 T02560200 53004 $
KCLE 232151Z 24007KT 10SM FEW020 BKN070 BKN250 24/20 A2974 RMK AO2 RAB17E26 SLP067 CB DSNT SE AND SW-NW MOV E P0000 T02390200 $
KCLE 232251Z 23010KT 6SM -RA BR SCT020CB BKN090 BKN250 22/20 A2975 RMK AO2 RAB28 SLP070 CB OHD AND SE-SW MOV E P0006 T02170200 $
KCLE 232351Z 24009KT 10SM FEW040 BKN080 22/19 A2977 RMK AO2 RAE2253 SLP075 P0000 60010 T02170194 10272 20217 53012 $
KCLE 240051Z 22006KT 10SM FEW055 BKN070 BKN110 22/19 A2978 RMK AO2 SLP079 T02170194 $



Page loaded:  01:16 UTC  |   06:16 PM Pacific  |   07:16 PM Mountain  |   08:16 PM Central  |   09:16 PM Eastern

 

ADVISORIES

FORECASTS

FORECASTS

OBSERVATIONS

USER TOOLS

ABOUT US